sensor_id;sensor_type;location;lat;lon;timestamp;P1;durP1;ratioP1;P2;durP2;ratioP2
8640;SDS011;4358;42.100;25.222;2024-01-16T00:00:33;62.50;;;33.20;;
8640;SDS011;4358;42.100;25.222;2024-01-16T00:03:02;57.27;;;31.37;;
8640;SDS011;4358;42.100;25.222;2024-01-16T00:05:29;61.17;;;33.10;;
8640;SDS011;4358;42.100;25.222;2024-01-16T00:07:56;58.10;;;31.63;;
8640;SDS011;4358;42.100;25.222;2024-01-16T00:10:25;55.50;;;31.60;;
8640;SDS011;4358;42.100;25.222;2024-01-16T00:12:51;58.60;;;30.73;;
8640;SDS011;4358;42.100;25.222;2024-01-16T00:15:19;62.10;;;33.10;;
8640;SDS011;4358;42.100;25.222;2024-01-16T00:17:46;63.10;;;32.90;;
8640;SDS011;4358;42.100;25.222;2024-01-16T00:20:14;60.57;;;31.77;;
8640;SDS011;4358;42.100;25.222;2024-01-16T00:22:41;63.37;;;32.13;;
8640;SDS011;4358;42.100;25.222;2024-01-16T00:25:08;63.73;;;33.93;;
8640;SDS011;4358;42.100;25.222;2024-01-16T00:27:36;56.37;;;30.57;;
8640;SDS011;4358;42.100;25.222;2024-01-16T00:30:03;61.43;;;32.03;;
8640;SDS011;4358;42.100;25.222;2024-01-16T00:32:30;53.63;;;29.00;;
8640;SDS011;4358;42.100;25.222;2024-01-16T00:34:57;51.13;;;30.50;;
8640;SDS011;4358;42.100;25.222;2024-01-16T00:37:25;55.83;;;29.87;;
8640;SDS011;4358;42.100;25.222;2024-01-16T00:39:52;53.23;;;28.63;;
8640;SDS011;4358;42.100;25.222;2024-01-16T00:42:19;55.27;;;31.50;;
8640;SDS011;4358;42.100;25.222;2024-01-16T00:44:46;54.80;;;29.67;;
8640;SDS011;4358;42.100;25.222;2024-01-16T00:47:13;53.13;;;30.87;;
8640;SDS011;4358;42.100;25.222;2024-01-16T00:49:40;58.27;;;30.20;;
8640;SDS011;4358;42.100;25.222;2024-01-16T00:52:07;54.37;;;31.03;;
8640;SDS011;4358;42.100;25.222;2024-01-16T00:54:35;49.40;;;28.97;;
8640;SDS011;4358;42.100;25.222;2024-01-16T00:57:02;55.23;;;30.50;;
8640;SDS011;4358;42.100;25.222;2024-01-16T00:59:29;52.93;;;31.67;;
8640;SDS011;4358;42.100;25.222;2024-01-16T01:01:56;51.23;;;29.57;;
8640;SDS011;4358;42.100;25.222;2024-01-16T01:04:22;52.53;;;28.93;;
8640;SDS011;4358;42.100;25.222;2024-01-16T01:06:49;55.03;;;31.40;;
8640;SDS011;4358;42.100;25.222;2024-01-16T01:09:16;53.27;;;30.50;;
8640;SDS011;4358;42.100;25.222;2024-01-16T01:11:45;60.67;;;31.30;;
8640;SDS011;4358;42.100;25.222;2024-01-16T01:14:12;62.40;;;31.70;;
8640;SDS011;4358;42.100;25.222;2024-01-16T01:16:39;56.70;;;30.10;;
8640;SDS011;4358;42.100;25.222;2024-01-16T01:19:06;55.40;;;29.90;;
8640;SDS011;4358;42.100;25.222;2024-01-16T01:21:33;55.33;;;31.97;;
8640;SDS011;4358;42.100;25.222;2024-01-16T01:24:01;60.77;;;32.97;;
8640;SDS011;4358;42.100;25.222;2024-01-16T01:26:28;58.07;;;32.23;;
8640;SDS011;4358;42.100;25.222;2024-01-16T01:28:56;62.13;;;33.23;;
8640;SDS011;4358;42.100;25.222;2024-01-16T01:31:23;61.37;;;33.73;;
8640;SDS011;4358;42.100;25.222;2024-01-16T01:33:50;60.57;;;34.37;;
8640;SDS011;4358;42.100;25.222;2024-01-16T01:36:17;58.33;;;32.57;;
8640;SDS011;4358;42.100;25.222;2024-01-16T01:38:44;57.60;;;31.90;;
8640;SDS011;4358;42.100;25.222;2024-01-16T01:41:11;59.60;;;31.63;;
8640;SDS011;4358;42.100;25.222;2024-01-16T01:43:38;57.90;;;30.50;;
8640;SDS011;4358;42.100;25.222;2024-01-16T01:46:09;59.13;;;31.83;;
8640;SDS011;4358;42.100;25.222;2024-01-16T01:48:40;58.30;;;30.53;;
8640;SDS011;4358;42.100;25.222;2024-01-16T01:51:08;65.70;;;33.33;;
8640;SDS011;4358;42.100;25.222;2024-01-16T01:53:35;62.00;;;32.17;;
8640;SDS011;4358;42.100;25.222;2024-01-16T01:56:04;66.50;;;32.63;;
8640;SDS011;4358;42.100;25.222;2024-01-16T01:58:33;61.10;;;31.37;;
8640;SDS011;4358;42.100;25.222;2024-01-16T02:01:01;56.10;;;31.27;;
8640;SDS011;4358;42.100;25.222;2024-01-16T02:03:31;55.80;;;31.13;;
8640;SDS011;4358;42.100;25.222;2024-01-16T02:06:01;54.03;;;29.33;;
8640;SDS011;4358;42.100;25.222;2024-01-16T02:08:28;57.40;;;31.63;;
8640;SDS011;4358;42.100;25.222;2024-01-16T02:10:55;56.90;;;29.97;;
8640;SDS011;4358;42.100;25.222;2024-01-16T02:13:22;59.37;;;31.87;;
8640;SDS011;4358;42.100;25.222;2024-01-16T02:15:49;55.57;;;30.67;;
8640;SDS011;4358;42.100;25.222;2024-01-16T02:18:17;55.23;;;31.77;;
8640;SDS011;4358;42.100;25.222;2024-01-16T02:20:45;53.53;;;29.23;;
8640;SDS011;4358;42.100;25.222;2024-01-16T02:23:14;51.83;;;29.53;;
8640;SDS011;4358;42.100;25.222;2024-01-16T02:25:43;47.93;;;28.70;;
8640;SDS011;4358;42.100;25.222;2024-01-16T02:28:10;55.87;;;28.50;;
8640;SDS011;4358;42.100;25.222;2024-01-16T02:30:37;50.03;;;27.97;;
8640;SDS011;4358;42.100;25.222;2024-01-16T02:33:06;52.90;;;27.23;;
8640;SDS011;4358;42.100;25.222;2024-01-16T02:35:33;62.93;;;28.83;;
8640;SDS011;4358;42.100;25.222;2024-01-16T02:38:00;51.10;;;27.30;;
8640;SDS011;4358;42.100;25.222;2024-01-16T02:40:27;56.37;;;29.10;;
8640;SDS011;4358;42.100;25.222;2024-01-16T02:42:55;56.67;;;29.00;;
8640;SDS011;4358;42.100;25.222;2024-01-16T02:45:22;53.87;;;28.23;;
8640;SDS011;4358;42.100;25.222;2024-01-16T02:47:49;54.33;;;28.13;;
8640;SDS011;4358;42.100;25.222;2024-01-16T02:50:16;53.03;;;28.13;;
8640;SDS011;4358;42.100;25.222;2024-01-16T02:52:45;57.37;;;29.47;;
8640;SDS011;4358;42.100;25.222;2024-01-16T02:55:12;50.13;;;27.07;;
8640;SDS011;4358;42.100;25.222;2024-01-16T02:57:39;53.33;;;28.20;;
8640;SDS011;4358;42.100;25.222;2024-01-16T03:00:08;51.23;;;28.13;;
8640;SDS011;4358;42.100;25.222;2024-01-16T03:02:36;51.47;;;28.37;;
8640;SDS011;4358;42.100;25.222;2024-01-16T03:05:03;52.23;;;27.30;;
8640;SDS011;4358;42.100;25.222;2024-01-16T03:07:32;48.57;;;28.33;;
8640;SDS011;4358;42.100;25.222;2024-01-16T03:09:59;53.67;;;28.27;;
8640;SDS011;4358;42.100;25.222;2024-01-16T03:12:26;53.67;;;29.07;;
8640;SDS011;4358;42.100;25.222;2024-01-16T03:14:53;52.67;;;28.57;;
8640;SDS011;4358;42.100;25.222;2024-01-16T03:17:21;53.53;;;27.93;;
8640;SDS011;4358;42.100;25.222;2024-01-16T03:19:48;57.60;;;28.97;;
8640;SDS011;4358;42.100;25.222;2024-01-16T03:22:15;54.47;;;27.43;;
8640;SDS011;4358;42.100;25.222;2024-01-16T03:24:42;53.00;;;29.07;;
8640;SDS011;4358;42.100;25.222;2024-01-16T03:27:09;52.50;;;26.97;;
8640;SDS011;4358;42.100;25.222;2024-01-16T03:29:36;49.20;;;27.57;;
8640;SDS011;4358;42.100;25.222;2024-01-16T03:32:03;53.93;;;29.20;;
8640;SDS011;4358;42.100;25.222;2024-01-16T03:34:32;55.07;;;28.87;;
8640;SDS011;4358;42.100;25.222;2024-01-16T03:36:59;62.30;;;29.00;;
8640;SDS011;4358;42.100;25.222;2024-01-16T03:39:26;50.53;;;29.20;;
8640;SDS011;4358;42.100;25.222;2024-01-16T03:41:53;49.73;;;26.57;;
8640;SDS011;4358;42.100;25.222;2024-01-16T03:44:20;48.40;;;27.33;;
8640;SDS011;4358;42.100;25.222;2024-01-16T03:46:47;51.57;;;26.47;;
8640;SDS011;4358;42.100;25.222;2024-01-16T03:49:14;50.50;;;28.23;;
8640;SDS011;4358;42.100;25.222;2024-01-16T03:51:42;53.90;;;27.83;;
8640;SDS011;4358;42.100;25.222;2024-01-16T03:54:11;56.97;;;29.17;;
8640;SDS011;4358;42.100;25.222;2024-01-16T03:56:38;51.70;;;28.13;;
8640;SDS011;4358;42.100;25.222;2024-01-16T03:59:05;49.10;;;26.70;;
8640;SDS011;4358;42.100;25.222;2024-01-16T04:01:32;47.63;;;26.53;;
8640;SDS011;4358;42.100;25.222;2024-01-16T04:04:02;55.70;;;28.27;;
8640;SDS011;4358;42.100;25.222;2024-01-16T04:06:31;57.37;;;28.53;;
8640;SDS011;4358;42.100;25.222;2024-01-16T04:08:59;51.47;;;26.87;;
8640;SDS011;4358;42.100;25.222;2024-01-16T04:11:28;49.20;;;26.20;;
8640;SDS011;4358;42.100;25.222;2024-01-16T04:13:55;52.20;;;26.50;;
8640;SDS011;4358;42.100;25.222;2024-01-16T04:16:22;49.60;;;27.17;;
8640;SDS011;4358;42.100;25.222;2024-01-16T04:18:49;47.90;;;26.47;;
8640;SDS011;4358;42.100;25.222;2024-01-16T04:21:16;47.90;;;25.17;;
8640;SDS011;4358;42.100;25.222;2024-01-16T04:23:43;53.50;;;26.07;;
8640;SDS011;4358;42.100;25.222;2024-01-16T04:26:12;43.17;;;22.97;;
8640;SDS011;4358;42.100;25.222;2024-01-16T04:28:39;46.47;;;23.50;;
8640;SDS011;4358;42.100;25.222;2024-01-16T04:31:06;54.30;;;27.47;;
8640;SDS011;4358;42.100;25.222;2024-01-16T04:33:33;49.63;;;25.97;;
8640;SDS011;4358;42.100;25.222;2024-01-16T04:36:00;46.60;;;25.07;;
8640;SDS011;4358;42.100;25.222;2024-01-16T04:38:27;49.03;;;26.27;;
8640;SDS011;4358;42.100;25.222;2024-01-16T04:40:54;52.73;;;27.60;;
8640;SDS011;4358;42.100;25.222;2024-01-16T04:43:22;57.07;;;28.07;;
8640;SDS011;4358;42.100;25.222;2024-01-16T04:45:49;53.90;;;27.20;;
8640;SDS011;4358;42.100;25.222;2024-01-16T04:48:16;54.37;;;28.30;;
8640;SDS011;4358;42.100;25.222;2024-01-16T04:50:43;85.00;;;35.23;;
8640;SDS011;4358;42.100;25.222;2024-01-16T04:53:10;60.63;;;30.13;;
8640;SDS011;4358;42.100;25.222;2024-01-16T04:55:37;51.80;;;28.20;;
8640;SDS011;4358;42.100;25.222;2024-01-16T04:58:04;45.73;;;26.93;;
8640;SDS011;4358;42.100;25.222;2024-01-16T05:00:34;44.73;;;24.77;;
8640;SDS011;4358;42.100;25.222;2024-01-16T05:03:02;54.57;;;28.07;;
8640;SDS011;4358;42.100;25.222;2024-01-16T05:05:30;53.20;;;27.23;;
8640;SDS011;4358;42.100;25.222;2024-01-16T05:07:57;52.17;;;28.20;;
8640;SDS011;4358;42.100;25.222;2024-01-16T05:10:23;48.60;;;26.83;;
8640;SDS011;4358;42.100;25.222;2024-01-16T05:12:50;51.43;;;26.93;;
8640;SDS011;4358;42.100;25.222;2024-01-16T05:15:17;51.17;;;27.27;;
8640;SDS011;4358;42.100;25.222;2024-01-16T05:17:45;53.53;;;27.33;;
8640;SDS011;4358;42.100;25.222;2024-01-16T05:20:13;60.00;;;31.83;;
8640;SDS011;4358;42.100;25.222;2024-01-16T05:22:40;56.10;;;30.00;;
8640;SDS011;4358;42.100;25.222;2024-01-16T05:25:07;54.00;;;29.03;;
8640;SDS011;4358;42.100;25.222;2024-01-16T05:27:34;55.43;;;28.97;;
8640;SDS011;4358;42.100;25.222;2024-01-16T05:30:01;58.37;;;31.00;;
8640;SDS011;4358;42.100;25.222;2024-01-16T05:32:28;59.60;;;32.47;;
8640;SDS011;4358;42.100;25.222;2024-01-16T05:34:57;52.90;;;28.33;;
8640;SDS011;4358;42.100;25.222;2024-01-16T05:37:23;55.00;;;28.30;;
8640;SDS011;4358;42.100;25.222;2024-01-16T05:39:50;58.90;;;33.33;;
8640;SDS011;4358;42.100;25.222;2024-01-16T05:42:17;63.30;;;32.20;;
8640;SDS011;4358;42.100;25.222;2024-01-16T05:44:44;56.30;;;31.60;;
8640;SDS011;4358;42.100;25.222;2024-01-16T05:47:11;58.50;;;30.83;;
8640;SDS011;4358;42.100;25.222;2024-01-16T05:49:38;60.00;;;33.03;;
8640;SDS011;4358;42.100;25.222;2024-01-16T05:52:08;65.80;;;32.40;;
8640;SDS011;4358;42.100;25.222;2024-01-16T05:54:35;70.97;;;34.27;;
8640;SDS011;4358;42.100;25.222;2024-01-16T05:57:02;59.60;;;31.83;;
8640;SDS011;4358;42.100;25.222;2024-01-16T05:59:29;50.03;;;26.63;;
8640;SDS011;4358;42.100;25.222;2024-01-16T06:01:56;55.53;;;29.87;;
8640;SDS011;4358;42.100;25.222;2024-01-16T06:04:23;47.23;;;27.53;;
8640;SDS011;4358;42.100;25.222;2024-01-16T06:06:50;56.47;;;31.10;;
8640;SDS011;4358;42.100;25.222;2024-01-16T06:09:18;53.23;;;30.63;;
8640;SDS011;4358;42.100;25.222;2024-01-16T06:11:45;51.73;;;27.90;;
8640;SDS011;4358;42.100;25.222;2024-01-16T06:14:13;55.37;;;30.73;;
8640;SDS011;4358;42.100;25.222;2024-01-16T06:16:46;59.20;;;31.87;;
8640;SDS011;4358;42.100;25.222;2024-01-16T06:19:13;55.90;;;28.67;;
8640;SDS011;4358;42.100;25.222;2024-01-16T06:21:41;64.77;;;32.20;;
8640;SDS011;4358;42.100;25.222;2024-01-16T06:24:08;54.33;;;29.97;;
8640;SDS011;4358;42.100;25.222;2024-01-16T06:26:38;55.13;;;29.33;;
8640;SDS011;4358;42.100;25.222;2024-01-16T06:29:05;55.43;;;29.83;;
8640;SDS011;4358;42.100;25.222;2024-01-16T06:31:32;72.67;;;38.77;;
8640;SDS011;4358;42.100;25.222;2024-01-16T06:33:59;71.10;;;38.37;;
8640;SDS011;4358;42.100;25.222;2024-01-16T06:36:26;62.70;;;34.03;;
8640;SDS011;4358;42.100;25.222;2024-01-16T06:38:53;71.20;;;34.80;;
8640;SDS011;4358;42.100;25.222;2024-01-16T06:41:20;52.67;;;29.37;;
8640;SDS011;4358;42.100;25.222;2024-01-16T06:43:48;58.93;;;31.67;;
8640;SDS011;4358;42.100;25.222;2024-01-16T06:46:15;52.23;;;27.10;;
8640;SDS011;4358;42.100;25.222;2024-01-16T06:48:43;50.60;;;29.70;;
8640;SDS011;4358;42.100;25.222;2024-01-16T06:51:09;60.73;;;30.93;;
8640;SDS011;4358;42.100;25.222;2024-01-16T06:53:39;61.50;;;32.67;;
8640;SDS011;4358;42.100;25.222;2024-01-16T06:56:06;73.90;;;35.13;;
8640;SDS011;4358;42.100;25.222;2024-01-16T06:58:34;70.20;;;36.77;;
8640;SDS011;4358;42.100;25.222;2024-01-16T07:01:03;65.83;;;35.17;;
8640;SDS011;4358;42.100;25.222;2024-01-16T07:03:30;74.87;;;37.10;;
8640;SDS011;4358;42.100;25.222;2024-01-16T07:05:57;66.17;;;33.57;;
8640;SDS011;4358;42.100;25.222;2024-01-16T07:08:24;61.90;;;36.37;;
8640;SDS011;4358;42.100;25.222;2024-01-16T07:10:51;49.67;;;30.30;;
8640;SDS011;4358;42.100;25.222;2024-01-16T07:13:18;48.50;;;28.83;;
8640;SDS011;4358;42.100;25.222;2024-01-16T07:15:45;40.47;;;26.07;;
8640;SDS011;4358;42.100;25.222;2024-01-16T07:18:13;39.83;;;23.70;;
8640;SDS011;4358;42.100;25.222;2024-01-16T07:20:40;60.00;;;30.63;;
8640;SDS011;4358;42.100;25.222;2024-01-16T07:23:08;46.93;;;28.33;;
8640;SDS011;4358;42.100;25.222;2024-01-16T07:25:36;47.47;;;27.77;;
8640;SDS011;4358;42.100;25.222;2024-01-16T07:28:03;53.00;;;30.50;;
8640;SDS011;4358;42.100;25.222;2024-01-16T07:30:30;48.50;;;27.87;;
8640;SDS011;4358;42.100;25.222;2024-01-16T07:32:57;53.57;;;31.47;;
8640;SDS011;4358;42.100;25.222;2024-01-16T07:35:25;56.13;;;31.73;;
8640;SDS011;4358;42.100;25.222;2024-01-16T07:37:52;72.90;;;40.70;;
8640;SDS011;4358;42.100;25.222;2024-01-16T07:40:19;55.97;;;33.27;;
8640;SDS011;4358;42.100;25.222;2024-01-16T07:42:46;56.93;;;32.60;;
8640;SDS011;4358;42.100;25.222;2024-01-16T07:45:13;52.97;;;29.40;;
8640;SDS011;4358;42.100;25.222;2024-01-16T07:47:40;45.20;;;27.17;;
8640;SDS011;4358;42.100;25.222;2024-01-16T07:50:07;45.97;;;26.83;;
8640;SDS011;4358;42.100;25.222;2024-01-16T07:52:36;44.47;;;26.63;;
8640;SDS011;4358;42.100;25.222;2024-01-16T07:55:04;48.47;;;28.27;;
8640;SDS011;4358;42.100;25.222;2024-01-16T07:57:31;56.90;;;28.53;;
8640;SDS011;4358;42.100;25.222;2024-01-16T07:59:58;57.67;;;32.77;;
8640;SDS011;4358;42.100;25.222;2024-01-16T08:02:26;54.70;;;31.90;;
8640;SDS011;4358;42.100;25.222;2024-01-16T08:04:58;47.97;;;28.90;;
8640;SDS011;4358;42.100;25.222;2024-01-16T08:07:24;46.47;;;28.03;;
8640;SDS011;4358;42.100;25.222;2024-01-16T08:09:54;47.53;;;30.03;;
8640;SDS011;4358;42.100;25.222;2024-01-16T08:12:21;48.30;;;27.30;;
8640;SDS011;4358;42.100;25.222;2024-01-16T08:14:48;50.93;;;29.57;;
8640;SDS011;4358;42.100;25.222;2024-01-16T08:17:15;42.07;;;23.23;;
8640;SDS011;4358;42.100;25.222;2024-01-16T08:19:43;35.80;;;19.40;;
8640;SDS011;4358;42.100;25.222;2024-01-16T08:22:09;32.77;;;20.63;;
8640;SDS011;4358;42.100;25.222;2024-01-16T08:24:36;31.03;;;19.00;;
8640;SDS011;4358;42.100;25.222;2024-01-16T08:27:05;27.53;;;17.73;;
8640;SDS011;4358;42.100;25.222;2024-01-16T08:29:32;30.97;;;16.50;;
8640;SDS011;4358;42.100;25.222;2024-01-16T08:31:59;30.10;;;16.20;;
8640;SDS011;4358;42.100;25.222;2024-01-16T08:34:26;21.23;;;13.97;;
8640;SDS011;4358;42.100;25.222;2024-01-16T08:36:53;23.43;;;13.83;;
8640;SDS011;4358;42.100;25.222;2024-01-16T08:39:22;25.97;;;15.97;;
8640;SDS011;4358;42.100;25.222;2024-01-16T08:41:49;25.00;;;15.33;;
8640;SDS011;4358;42.100;25.222;2024-01-16T08:44:17;24.27;;;14.87;;
8640;SDS011;4358;42.100;25.222;2024-01-16T08:46:44;27.33;;;16.10;;
8640;SDS011;4358;42.100;25.222;2024-01-16T08:49:11;22.77;;;14.90;;
8640;SDS011;4358;42.100;25.222;2024-01-16T08:51:39;21.13;;;14.03;;
8640;SDS011;4358;42.100;25.222;2024-01-16T08:54:06;21.90;;;14.57;;
8640;SDS011;4358;42.100;25.222;2024-01-16T08:56:33;19.87;;;12.73;;
8640;SDS011;4358;42.100;25.222;2024-01-16T08:59:00;19.40;;;11.60;;
8640;SDS011;4358;42.100;25.222;2024-01-16T09:01:28;20.13;;;12.43;;
8640;SDS011;4358;42.100;25.222;2024-01-16T09:03:55;18.17;;;11.57;;
8640;SDS011;4358;42.100;25.222;2024-01-16T09:06:22;18.90;;;11.23;;
8640;SDS011;4358;42.100;25.222;2024-01-16T09:08:49;15.40;;;9.83;;
8640;SDS011;4358;42.100;25.222;2024-01-16T09:11:16;14.47;;;10.23;;
8640;SDS011;4358;42.100;25.222;2024-01-16T09:13:43;14.97;;;10.13;;
8640;SDS011;4358;42.100;25.222;2024-01-16T09:16:10;15.43;;;9.23;;
8640;SDS011;4358;42.100;25.222;2024-01-16T09:18:38;16.07;;;8.33;;
8640;SDS011;4358;42.100;25.222;2024-01-16T09:21:05;11.53;;;7.67;;
8640;SDS011;4358;42.100;25.222;2024-01-16T09:23:32;10.87;;;7.00;;
8640;SDS011;4358;42.100;25.222;2024-01-16T09:25:59;9.47;;;6.90;;
8640;SDS011;4358;42.100;25.222;2024-01-16T09:28:26;10.10;;;5.43;;
8640;SDS011;4358;42.100;25.222;2024-01-16T09:30:54;8.50;;;5.47;;
8640;SDS011;4358;42.100;25.222;2024-01-16T09:33:22;7.77;;;4.63;;
8640;SDS011;4358;42.100;25.222;2024-01-16T09:35:52;5.07;;;3.90;;
8640;SDS011;4358;42.100;25.222;2024-01-16T09:38:19;5.07;;;3.30;;
8640;SDS011;4358;42.100;25.222;2024-01-16T09:40:46;9.40;;;4.90;;
8640;SDS011;4358;42.100;25.222;2024-01-16T09:43:13;5.00;;;3.20;;
8640;SDS011;4358;42.100;25.222;2024-01-16T09:45:40;6.13;;;4.87;;
8640;SDS011;4358;42.100;25.222;2024-01-16T09:48:07;5.67;;;3.47;;
8640;SDS011;4358;42.100;25.222;2024-01-16T09:50:35;4.10;;;3.27;;
8640;SDS011;4358;42.100;25.222;2024-01-16T09:53:04;2.93;;;2.43;;
8640;SDS011;4358;42.100;25.222;2024-01-16T09:55:31;4.87;;;3.70;;
8640;SDS011;4358;42.100;25.222;2024-01-16T09:57:58;5.07;;;3.33;;
8640;SDS011;4358;42.100;25.222;2024-01-16T10:00:26;2.53;;;2.33;;
8640;SDS011;4358;42.100;25.222;2024-01-16T10:02:54;6.40;;;2.67;;
8640;SDS011;4358;42.100;25.222;2024-01-16T10:05:24;2.17;;;1.90;;
8640;SDS011;4358;42.100;25.222;2024-01-16T10:07:51;2.03;;;1.83;;
8640;SDS011;4358;42.100;25.222;2024-01-16T10:10:20;1.97;;;1.60;;
8640;SDS011;4358;42.100;25.222;2024-01-16T10:12:47;1.63;;;1.40;;
8640;SDS011;4358;42.100;25.222;2024-01-16T10:15:16;1.73;;;1.60;;
8640;SDS011;4358;42.100;25.222;2024-01-16T10:17:46;2.33;;;1.50;;
8640;SDS011;4358;42.100;25.222;2024-01-16T10:20:13;1.90;;;1.70;;
8640;SDS011;4358;42.100;25.222;2024-01-16T10:22:51;2.10;;;1.90;;
8640;SDS011;4358;42.100;25.222;2024-01-16T10:25:20;2.03;;;1.80;;
8640;SDS011;4358;42.100;25.222;2024-01-16T10:27:48;2.00;;;1.67;;
8640;SDS011;4358;42.100;25.222;2024-01-16T10:30:16;2.37;;;1.53;;
8640;SDS011;4358;42.100;25.222;2024-01-16T10:32:48;1.30;;;1.20;;
8640;SDS011;4358;42.100;25.222;2024-01-16T10:35:15;1.60;;;1.50;;
8640;SDS011;4358;42.100;25.222;2024-01-16T10:37:42;2.13;;;1.63;;
8640;SDS011;4358;42.100;25.222;2024-01-16T10:40:12;2.33;;;1.70;;
8640;SDS011;4358;42.100;25.222;2024-01-16T10:42:43;2.43;;;1.77;;
8640;SDS011;4358;42.100;25.222;2024-01-16T10:45:16;2.87;;;1.73;;
8640;SDS011;4358;42.100;25.222;2024-01-16T10:47:45;2.33;;;1.30;;
8640;SDS011;4358;42.100;25.222;2024-01-16T10:50:12;1.20;;;1.10;;
8640;SDS011;4358;42.100;25.222;2024-01-16T10:52:41;1.17;;;1.07;;
8640;SDS011;4358;42.100;25.222;2024-01-16T10:55:15;3.30;;;1.47;;
8640;SDS011;4358;42.100;25.222;2024-01-16T10:57:47;5.77;;;1.40;;
8640;SDS011;4358;42.100;25.222;2024-01-16T11:00:15;4.17;;;1.40;;
8640;SDS011;4358;42.100;25.222;2024-01-16T11:02:48;2.47;;;1.50;;
8640;SDS011;4358;42.100;25.222;2024-01-16T11:05:16;1.47;;;1.27;;
8640;SDS011;4358;42.100;25.222;2024-01-16T11:07:44;2.00;;;1.43;;
8640;SDS011;4358;42.100;25.222;2024-01-16T11:10:11;2.90;;;1.50;;
8640;SDS011;4358;42.100;25.222;2024-01-16T11:12:39;2.00;;;1.13;;
8640;SDS011;4358;42.100;25.222;2024-01-16T11:15:10;5.37;;;1.40;;
8640;SDS011;4358;42.100;25.222;2024-01-16T11:17:38;1.90;;;1.67;;
8640;SDS011;4358;42.100;25.222;2024-01-16T11:20:08;1.70;;;1.40;;
8640;SDS011;4358;42.100;25.222;2024-01-16T11:22:39;2.57;;;1.60;;
8640;SDS011;4358;42.100;25.222;2024-01-16T11:25:09;1.30;;;1.20;;
8640;SDS011;4358;42.100;25.222;2024-01-16T11:27:36;1.47;;;1.37;;
8640;SDS011;4358;42.100;25.222;2024-01-16T11:30:04;1.13;;;1.03;;
8640;SDS011;4358;42.100;25.222;2024-01-16T11:32:34;1.90;;;1.50;;
8640;SDS011;4358;42.100;25.222;2024-01-16T11:35:02;1.60;;;1.50;;
8640;SDS011;4358;42.100;25.222;2024-01-16T11:37:31;2.10;;;1.50;;
8640;SDS011;4358;42.100;25.222;2024-01-16T11:42:52;1.63;;;1.40;;
8640;SDS011;4358;42.100;25.222;2024-01-16T11:48:17;1.97;;;1.50;;
8640;SDS011;4358;42.100;25.222;2024-01-16T11:50:45;1.77;;;1.67;;
8640;SDS011;4358;42.100;25.222;2024-01-16T11:56:09;1.77;;;1.53;;
8640;SDS011;4358;42.100;25.222;2024-01-16T11:59:06;2.77;;;2.10;;
8640;SDS011;4358;42.100;25.222;2024-01-16T12:02:05;3.83;;;1.50;;
8640;SDS011;4358;42.100;25.222;2024-01-16T12:04:40;1.50;;;1.40;;
8640;SDS011;4358;42.100;25.222;2024-01-16T12:07:07;1.67;;;1.53;;
8640;SDS011;4358;42.100;25.222;2024-01-16T12:09:36;2.57;;;1.70;;
8640;SDS011;4358;42.100;25.222;2024-01-16T12:12:03;1.77;;;1.50;;
8640;SDS011;4358;42.100;25.222;2024-01-16T12:14:30;1.70;;;1.33;;
8640;SDS011;4358;42.100;25.222;2024-01-16T12:17:10;1.27;;;1.17;;
8640;SDS011;4358;42.100;25.222;2024-01-16T12:19:38;1.40;;;1.13;;
8640;SDS011;4358;42.100;25.222;2024-01-16T12:22:08;9.10;;;1.50;;
8640;SDS011;4358;42.100;25.222;2024-01-16T12:24:35;1.80;;;1.50;;
8640;SDS011;4358;42.100;25.222;2024-01-16T12:27:03;1.37;;;1.10;;
8640;SDS011;4358;42.100;25.222;2024-01-16T12:29:30;1.87;;;1.27;;
8640;SDS011;4358;42.100;25.222;2024-01-16T12:32:04;2.20;;;1.40;;
8640;SDS011;4358;42.100;25.222;2024-01-16T12:34:32;1.90;;;1.70;;
8640;SDS011;4358;42.100;25.222;2024-01-16T12:37:05;1.23;;;1.13;;
8640;SDS011;4358;42.100;25.222;2024-01-16T12:39:33;1.57;;;1.30;;
8640;SDS011;4358;42.100;25.222;2024-01-16T12:42:01;2.00;;;1.40;;
8640;SDS011;4358;42.100;25.222;2024-01-16T12:44:28;1.50;;;1.40;;
8640;SDS011;4358;42.100;25.222;2024-01-16T12:46:56;3.60;;;2.30;;
8640;SDS011;4358;42.100;25.222;2024-01-16T12:49:24;1.97;;;1.60;;
8640;SDS011;4358;42.100;25.222;2024-01-16T12:51:51;2.00;;;1.47;;
8640;SDS011;4358;42.100;25.222;2024-01-16T12:54:19;2.10;;;1.70;;
8640;SDS011;4358;42.100;25.222;2024-01-16T12:56:50;2.17;;;1.60;;
8640;SDS011;4358;42.100;25.222;2024-01-16T12:59:27;1.20;;;1.17;;
8640;SDS011;4358;42.100;25.222;2024-01-16T13:01:55;1.20;;;1.10;;
8640;SDS011;4358;42.100;25.222;2024-01-16T13:04:22;1.60;;;1.30;;
8640;SDS011;4358;42.100;25.222;2024-01-16T13:06:49;3.23;;;1.70;;
8640;SDS011;4358;42.100;25.222;2024-01-16T13:09:16;2.23;;;1.53;;
8640;SDS011;4358;42.100;25.222;2024-01-16T13:11:50;1.33;;;1.10;;
8640;SDS011;4358;42.100;25.222;2024-01-16T13:14:18;1.90;;;1.40;;
8640;SDS011;4358;42.100;25.222;2024-01-16T13:16:47;2.90;;;1.50;;
8640;SDS011;4358;42.100;25.222;2024-01-16T13:19:15;2.13;;;1.93;;
8640;SDS011;4358;42.100;25.222;2024-01-16T13:21:43;2.37;;;1.87;;
8640;SDS011;4358;42.100;25.222;2024-01-16T13:24:10;2.03;;;1.70;;
8640;SDS011;4358;42.100;25.222;2024-01-16T13:26:37;1.83;;;1.40;;
8640;SDS011;4358;42.100;25.222;2024-01-16T13:29:06;1.43;;;1.33;;
8640;SDS011;4358;42.100;25.222;2024-01-16T13:31:34;1.67;;;1.50;;
8640;SDS011;4358;42.100;25.222;2024-01-16T13:34:01;3.50;;;1.70;;
8640;SDS011;4358;42.100;25.222;2024-01-16T13:36:28;2.70;;;1.27;;
8640;SDS011;4358;42.100;25.222;2024-01-16T13:38:56;1.23;;;1.13;;
8640;SDS011;4358;42.100;25.222;2024-01-16T13:41:23;2.00;;;1.60;;
8640;SDS011;4358;42.100;25.222;2024-01-16T13:43:50;3.80;;;1.47;;
8640;SDS011;4358;42.100;25.222;2024-01-16T13:46:18;1.70;;;1.37;;
8640;SDS011;4358;42.100;25.222;2024-01-16T13:48:45;2.57;;;1.70;;
8640;SDS011;4358;42.100;25.222;2024-01-16T13:51:12;1.60;;;1.40;;
8640;SDS011;4358;42.100;25.222;2024-01-16T13:53:39;2.67;;;1.30;;
8640;SDS011;4358;42.100;25.222;2024-01-16T13:56:06;1.40;;;1.30;;
8640;SDS011;4358;42.100;25.222;2024-01-16T13:58:33;8.47;;;1.50;;
8640;SDS011;4358;42.100;25.222;2024-01-16T14:01:00;2.80;;;1.20;;
8640;SDS011;4358;42.100;25.222;2024-01-16T14:03:30;3.77;;;1.73;;
8640;SDS011;4358;42.100;25.222;2024-01-16T14:05:57;1.87;;;1.50;;
8640;SDS011;4358;42.100;25.222;2024-01-16T14:08:24;3.07;;;1.43;;
8640;SDS011;4358;42.100;25.222;2024-01-16T14:10:51;2.60;;;1.43;;
8640;SDS011;4358;42.100;25.222;2024-01-16T14:13:18;1.43;;;1.20;;
8640;SDS011;4358;42.100;25.222;2024-01-16T14:15:45;2.07;;;1.37;;
8640;SDS011;4358;42.100;25.222;2024-01-16T14:18:12;1.97;;;1.43;;
8640;SDS011;4358;42.100;25.222;2024-01-16T14:20:40;2.50;;;1.93;;
8640;SDS011;4358;42.100;25.222;2024-01-16T14:23:07;1.50;;;1.20;;
8640;SDS011;4358;42.100;25.222;2024-01-16T14:25:34;8.73;;;2.80;;
8640;SDS011;4358;42.100;25.222;2024-01-16T14:28:02;2.07;;;1.50;;
8640;SDS011;4358;42.100;25.222;2024-01-16T14:30:30;3.30;;;2.40;;
8640;SDS011;4358;42.100;25.222;2024-01-16T14:32:58;10.97;;;6.30;;
8640;SDS011;4358;42.100;25.222;2024-01-16T14:35:26;4.80;;;4.00;;
8640;SDS011;4358;42.100;25.222;2024-01-16T14:37:55;5.10;;;2.50;;
8640;SDS011;4358;42.100;25.222;2024-01-16T14:40:22;2.47;;;1.60;;
8640;SDS011;4358;42.100;25.222;2024-01-16T14:42:51;2.70;;;2.30;;
8640;SDS011;4358;42.100;25.222;2024-01-16T14:45:19;1.87;;;1.40;;
8640;SDS011;4358;42.100;25.222;2024-01-16T14:47:47;2.27;;;1.40;;
8640;SDS011;4358;42.100;25.222;2024-01-16T14:50:14;1.97;;;1.50;;
8640;SDS011;4358;42.100;25.222;2024-01-16T14:52:42;2.90;;;2.10;;
8640;SDS011;4358;42.100;25.222;2024-01-16T14:55:11;6.93;;;3.73;;